sensor_id;sensor_type;location;lat;lon;timestamp;P1;durP1;ratioP1;P2;durP2;ratioP2
71108;SDS011;59614;51.012;-1.648;2022-09-29T00:02:16;3.67;;;2.17;;
71108;SDS011;59614;51.012;-1.648;2022-09-29T00:04:42;4.30;;;2.28;;
71108;SDS011;59614;51.012;-1.648;2022-09-29T00:07:07;4.55;;;2.17;;
71108;SDS011;59614;51.012;-1.648;2022-09-29T00:09:33;2.92;;;2.00;;
71108;SDS011;59614;51.012;-1.648;2022-09-29T00:11:59;3.05;;;2.10;;
71108;SDS011;59614;51.012;-1.648;2022-09-29T00:14:24;4.63;;;2.30;;
71108;SDS011;59614;51.012;-1.648;2022-09-29T00:16:50;4.20;;;2.20;;
71108;SDS011;59614;51.012;-1.648;2022-09-29T00:19:17;2.53;;;1.98;;
71108;SDS011;59614;51.012;-1.648;2022-09-29T00:21:43;4.18;;;2.05;;
71108;SDS011;59614;51.012;-1.648;2022-09-29T00:24:09;3.28;;;1.98;;
71108;SDS011;59614;51.012;-1.648;2022-09-29T00:26:34;3.17;;;2.00;;
71108;SDS011;59614;51.012;-1.648;2022-09-29T00:29:00;4.93;;;2.03;;
71108;SDS011;59614;51.012;-1.648;2022-09-29T00:31:29;4.18;;;2.20;;
71108;SDS011;59614;51.012;-1.648;2022-09-29T00:33:57;2.90;;;2.00;;
71108;SDS011;59614;51.012;-1.648;2022-09-29T00:36:23;3.28;;;2.03;;
71108;SDS011;59614;51.012;-1.648;2022-09-29T00:38:54;4.00;;;2.20;;
71108;SDS011;59614;51.012;-1.648;2022-09-29T00:41:23;4.97;;;2.35;;
71108;SDS011;59614;51.012;-1.648;2022-09-29T00:43:58;5.18;;;2.35;;
71108;SDS011;59614;51.012;-1.648;2022-09-29T00:54:31;3.08;;;2.08;;
71108;SDS011;59614;51.012;-1.648;2022-09-29T00:57:01;3.75;;;1.98;;
71108;SDS011;59614;51.012;-1.648;2022-09-29T00:59:36;5.10;;;2.10;;
71108;SDS011;59614;51.012;-1.648;2022-09-29T01:02:10;3.50;;;2.10;;
71108;SDS011;59614;51.012;-1.648;2022-09-29T01:04:37;3.03;;;2.20;;
71108;SDS011;59614;51.012;-1.648;2022-09-29T01:07:04;4.70;;;2.17;;
71108;SDS011;59614;51.012;-1.648;2022-09-29T01:09:31;4.97;;;2.33;;
71108;SDS011;59614;51.012;-1.648;2022-09-29T01:12:01;4.22;;;2.08;;
71108;SDS011;59614;51.012;-1.648;2022-09-29T01:14:28;5.03;;;2.30;;
71108;SDS011;59614;51.012;-1.648;2022-09-29T01:30:25;2.83;;;1.80;;
71108;SDS011;59614;51.012;-1.648;2022-09-29T01:38:41;7.32;;;2.40;;
71108;SDS011;59614;51.012;-1.648;2022-09-29T01:44:10;6.10;;;2.10;;
71108;SDS011;59614;51.012;-1.648;2022-09-29T01:46:44;9.45;;;2.33;;
71108;SDS011;59614;51.012;-1.648;2022-09-29T01:49:14;5.30;;;2.40;;
71108;SDS011;59614;51.012;-1.648;2022-09-29T01:52:00;6.00;;;2.63;;
71108;SDS011;59614;51.012;-1.648;2022-09-29T01:54:43;4.70;;;2.25;;
71108;SDS011;59614;51.012;-1.648;2022-09-29T02:00:00;7.22;;;2.17;;
71108;SDS011;59614;51.012;-1.648;2022-09-29T02:02:29;5.82;;;2.33;;
71108;SDS011;59614;51.012;-1.648;2022-09-29T02:05:02;5.68;;;2.60;;
71108;SDS011;59614;51.012;-1.648;2022-09-29T02:07:41;4.35;;;2.20;;
71108;SDS011;59614;51.012;-1.648;2022-09-29T02:10:11;4.10;;;2.25;;
71108;SDS011;59614;51.012;-1.648;2022-09-29T02:12:43;3.47;;;2.20;;
71108;SDS011;59614;51.012;-1.648;2022-09-29T02:15:13;4.22;;;2.20;;
71108;SDS011;59614;51.012;-1.648;2022-09-29T02:17:50;4.65;;;2.53;;
71108;SDS011;59614;51.012;-1.648;2022-09-29T02:20:17;4.28;;;2.30;;
71108;SDS011;59614;51.012;-1.648;2022-09-29T02:22:43;3.90;;;2.20;;
71108;SDS011;59614;51.012;-1.648;2022-09-29T02:25:10;5.43;;;2.42;;
71108;SDS011;59614;51.012;-1.648;2022-09-29T02:27:39;3.92;;;2.40;;
71108;SDS011;59614;51.012;-1.648;2022-09-29T02:30:04;5.32;;;2.08;;
71108;SDS011;59614;51.012;-1.648;2022-09-29T02:32:31;7.75;;;2.38;;
71108;SDS011;59614;51.012;-1.648;2022-09-29T02:40:17;4.70;;;2.33;;
71108;SDS011;59614;51.012;-1.648;2022-09-29T02:53:43;5.90;;;2.60;;
71108;SDS011;59614;51.012;-1.648;2022-09-29T02:59:12;4.32;;;2.30;;
71108;SDS011;59614;51.012;-1.648;2022-09-29T03:01:51;4.40;;;2.30;;
71108;SDS011;59614;51.012;-1.648;2022-09-29T03:04:20;5.43;;;2.40;;
71108;SDS011;59614;51.012;-1.648;2022-09-29T03:06:47;4.90;;;2.47;;
71108;SDS011;59614;51.012;-1.648;2022-09-29T03:09:13;3.92;;;2.50;;
71108;SDS011;59614;51.012;-1.648;2022-09-29T03:11:39;5.35;;;2.50;;
71108;SDS011;59614;51.012;-1.648;2022-09-29T03:14:04;4.30;;;2.42;;
71108;SDS011;59614;51.012;-1.648;2022-09-29T03:16:33;5.97;;;2.63;;
71108;SDS011;59614;51.012;-1.648;2022-09-29T03:19:01;4.85;;;2.47;;
71108;SDS011;59614;51.012;-1.648;2022-09-29T03:21:29;6.53;;;2.50;;
71108;SDS011;59614;51.012;-1.648;2022-09-29T03:23:55;7.05;;;2.55;;
71108;SDS011;59614;51.012;-1.648;2022-09-29T03:26:20;5.03;;;2.55;;
71108;SDS011;59614;51.012;-1.648;2022-09-29T03:28:47;3.80;;;2.47;;
71108;SDS011;59614;51.012;-1.648;2022-09-29T03:31:14;3.72;;;2.10;;
71108;SDS011;59614;51.012;-1.648;2022-09-29T03:33:39;4.80;;;2.42;;
71108;SDS011;59614;51.012;-1.648;2022-09-29T03:36:05;4.38;;;2.30;;
71108;SDS011;59614;51.012;-1.648;2022-09-29T03:38:33;6.63;;;2.65;;
71108;SDS011;59614;51.012;-1.648;2022-09-29T03:40:58;6.63;;;2.63;;
71108;SDS011;59614;51.012;-1.648;2022-09-29T03:43:24;5.70;;;3.05;;
71108;SDS011;59614;51.012;-1.648;2022-09-29T03:45:50;6.35;;;2.63;;
71108;SDS011;59614;51.012;-1.648;2022-09-29T03:48:17;8.70;;;2.67;;
71108;SDS011;59614;51.012;-1.648;2022-09-29T03:50:43;6.80;;;2.97;;
71108;SDS011;59614;51.012;-1.648;2022-09-29T03:53:10;4.15;;;2.63;;
71108;SDS011;59614;51.012;-1.648;2022-09-29T03:55:37;5.45;;;2.30;;
71108;SDS011;59614;51.012;-1.648;2022-09-29T03:58:02;4.00;;;2.40;;
71108;SDS011;59614;51.012;-1.648;2022-09-29T04:00:28;6.32;;;2.92;;
71108;SDS011;59614;51.012;-1.648;2022-09-29T04:02:53;5.18;;;2.63;;
71108;SDS011;59614;51.012;-1.648;2022-09-29T04:05:19;3.95;;;2.83;;
71108;SDS011;59614;51.012;-1.648;2022-09-29T04:07:46;9.65;;;3.22;;
71108;SDS011;59614;51.012;-1.648;2022-09-29T04:10:11;4.43;;;2.60;;
71108;SDS011;59614;51.012;-1.648;2022-09-29T04:12:37;4.75;;;2.67;;
71108;SDS011;59614;51.012;-1.648;2022-09-29T04:15:03;5.63;;;2.80;;
71108;SDS011;59614;51.012;-1.648;2022-09-29T04:17:29;4.50;;;2.80;;
71108;SDS011;59614;51.012;-1.648;2022-09-29T04:19:54;4.35;;;2.70;;
71108;SDS011;59614;51.012;-1.648;2022-09-29T04:22:20;5.03;;;2.83;;
71108;SDS011;59614;51.012;-1.648;2022-09-29T04:24:45;4.10;;;2.60;;
71108;SDS011;59614;51.012;-1.648;2022-09-29T04:27:12;5.82;;;2.80;;
71108;SDS011;59614;51.012;-1.648;2022-09-29T04:29:38;4.90;;;2.90;;
71108;SDS011;59614;51.012;-1.648;2022-09-29T04:32:04;6.25;;;2.67;;
71108;SDS011;59614;51.012;-1.648;2022-09-29T04:34:30;4.45;;;3.03;;
71108;SDS011;59614;51.012;-1.648;2022-09-29T04:36:56;5.20;;;2.45;;
71108;SDS011;59614;51.012;-1.648;2022-09-29T04:39:22;6.95;;;2.75;;
71108;SDS011;59614;51.012;-1.648;2022-09-29T04:41:48;8.32;;;2.80;;
71108;SDS011;59614;51.012;-1.648;2022-09-29T04:44:13;4.38;;;2.50;;
71108;SDS011;59614;51.012;-1.648;2022-09-29T04:46:38;5.80;;;2.80;;
71108;SDS011;59614;51.012;-1.648;2022-09-29T04:49:04;5.43;;;2.60;;
71108;SDS011;59614;51.012;-1.648;2022-09-29T04:51:29;5.68;;;2.72;;
71108;SDS011;59614;51.012;-1.648;2022-09-29T04:53:56;7.57;;;2.80;;
71108;SDS011;59614;51.012;-1.648;2022-09-29T04:56:22;5.00;;;2.90;;
71108;SDS011;59614;51.012;-1.648;2022-09-29T04:58:48;6.03;;;2.67;;
71108;SDS011;59614;51.012;-1.648;2022-09-29T05:01:14;6.57;;;2.90;;
71108;SDS011;59614;51.012;-1.648;2022-09-29T05:03:40;6.35;;;2.88;;
71108;SDS011;59614;51.012;-1.648;2022-09-29T05:06:06;4.25;;;2.70;;
71108;SDS011;59614;51.012;-1.648;2022-09-29T05:08:33;8.40;;;3.20;;
71108;SDS011;59614;51.012;-1.648;2022-09-29T05:11:01;5.65;;;2.85;;
71108;SDS011;59614;51.012;-1.648;2022-09-29T05:13:30;5.00;;;2.80;;
71108;SDS011;59614;51.012;-1.648;2022-09-29T05:15:55;5.13;;;2.83;;
71108;SDS011;59614;51.012;-1.648;2022-09-29T05:18:21;8.50;;;3.00;;
71108;SDS011;59614;51.012;-1.648;2022-09-29T05:20:47;4.85;;;3.45;;
71108;SDS011;59614;51.012;-1.648;2022-09-29T05:23:13;4.35;;;2.95;;
71108;SDS011;59614;51.012;-1.648;2022-09-29T05:25:38;9.25;;;3.13;;
71108;SDS011;59614;51.012;-1.648;2022-09-29T05:28:04;4.63;;;2.95;;
71108;SDS011;59614;51.012;-1.648;2022-09-29T05:30:30;6.65;;;2.90;;
71108;SDS011;59614;51.012;-1.648;2022-09-29T05:32:55;5.80;;;3.00;;
71108;SDS011;59614;51.012;-1.648;2022-09-29T05:35:20;5.60;;;3.03;;
71108;SDS011;59614;51.012;-1.648;2022-09-29T05:37:46;4.10;;;2.70;;
71108;SDS011;59614;51.012;-1.648;2022-09-29T05:40:11;6.03;;;3.40;;
71108;SDS011;59614;51.012;-1.648;2022-09-29T05:42:37;5.60;;;2.65;;
71108;SDS011;59614;51.012;-1.648;2022-09-29T05:45:05;5.88;;;3.15;;
71108;SDS011;59614;51.012;-1.648;2022-09-29T05:47:34;5.15;;;3.03;;
71108;SDS011;59614;51.012;-1.648;2022-09-29T05:49:59;5.97;;;3.28;;
71108;SDS011;59614;51.012;-1.648;2022-09-29T05:52:25;4.72;;;3.22;;
71108;SDS011;59614;51.012;-1.648;2022-09-29T05:54:50;5.95;;;3.10;;
71108;SDS011;59614;51.012;-1.648;2022-09-29T05:57:17;6.15;;;3.15;;
71108;SDS011;59614;51.012;-1.648;2022-09-29T05:59:43;5.65;;;2.92;;
71108;SDS011;59614;51.012;-1.648;2022-09-29T06:02:08;5.03;;;3.10;;
71108;SDS011;59614;51.012;-1.648;2022-09-29T06:04:33;6.20;;;3.15;;
71108;SDS011;59614;51.012;-1.648;2022-09-29T06:07:00;6.82;;;3.10;;
71108;SDS011;59614;51.012;-1.648;2022-09-29T06:09:25;6.00;;;3.05;;
71108;SDS011;59614;51.012;-1.648;2022-09-29T06:11:51;3.97;;;2.50;;
71108;SDS011;59614;51.012;-1.648;2022-09-29T06:14:16;7.38;;;3.38;;
71108;SDS011;59614;51.012;-1.648;2022-09-29T06:16:42;6.63;;;3.40;;
71108;SDS011;59614;51.012;-1.648;2022-09-29T06:19:08;4.57;;;2.83;;
71108;SDS011;59614;51.012;-1.648;2022-09-29T06:21:33;5.22;;;3.13;;
71108;SDS011;59614;51.012;-1.648;2022-09-29T06:23:59;4.80;;;3.00;;
71108;SDS011;59614;51.012;-1.648;2022-09-29T06:26:25;4.72;;;2.97;;
71108;SDS011;59614;51.012;-1.648;2022-09-29T06:28:51;5.68;;;3.45;;
71108;SDS011;59614;51.012;-1.648;2022-09-29T06:31:18;5.82;;;3.63;;
71108;SDS011;59614;51.012;-1.648;2022-09-29T06:33:45;5.78;;;3.42;;
71108;SDS011;59614;51.012;-1.648;2022-09-29T06:39:01;9.32;;;3.78;;
71108;SDS011;59614;51.012;-1.648;2022-09-29T06:41:29;10.32;;;5.07;;
71108;SDS011;59614;51.012;-1.648;2022-09-29T06:43:54;7.40;;;4.13;;
71108;SDS011;59614;51.012;-1.648;2022-09-29T06:46:20;6.32;;;3.97;;
71108;SDS011;59614;51.012;-1.648;2022-09-29T06:48:46;7.25;;;4.20;;
71108;SDS011;59614;51.012;-1.648;2022-09-29T06:51:12;7.30;;;4.15;;
71108;SDS011;59614;51.012;-1.648;2022-09-29T06:53:38;6.43;;;3.92;;
71108;SDS011;59614;51.012;-1.648;2022-09-29T06:56:04;6.97;;;3.63;;
71108;SDS011;59614;51.012;-1.648;2022-09-29T06:58:30;5.45;;;3.78;;
71108;SDS011;59614;51.012;-1.648;2022-09-29T07:00:58;5.80;;;3.50;;
71108;SDS011;59614;51.012;-1.648;2022-09-29T07:03:24;4.80;;;3.50;;
71108;SDS011;59614;51.012;-1.648;2022-09-29T07:05:50;5.88;;;3.60;;
71108;SDS011;59614;51.012;-1.648;2022-09-29T07:08:15;6.28;;;3.40;;
71108;SDS011;59614;51.012;-1.648;2022-09-29T07:10:41;7.28;;;3.50;;
71108;SDS011;59614;51.012;-1.648;2022-09-29T07:13:06;8.38;;;3.90;;
71108;SDS011;59614;51.012;-1.648;2022-09-29T07:15:33;8.57;;;4.07;;
71108;SDS011;59614;51.012;-1.648;2022-09-29T07:18:00;8.05;;;4.57;;
71108;SDS011;59614;51.012;-1.648;2022-09-29T07:20:27;7.45;;;4.30;;
71108;SDS011;59614;51.012;-1.648;2022-09-29T07:22:53;5.82;;;4.00;;
71108;SDS011;59614;51.012;-1.648;2022-09-29T07:25:19;5.10;;;3.70;;
71108;SDS011;59614;51.012;-1.648;2022-09-29T07:27:45;5.68;;;3.45;;
71108;SDS011;59614;51.012;-1.648;2022-09-29T07:30:11;5.57;;;3.90;;
71108;SDS011;59614;51.012;-1.648;2022-09-29T07:32:37;5.95;;;3.00;;
71108;SDS011;59614;51.012;-1.648;2022-09-29T07:35:03;6.45;;;3.45;;
71108;SDS011;59614;51.012;-1.648;2022-09-29T07:37:30;4.05;;;2.70;;
71108;SDS011;59614;51.012;-1.648;2022-09-29T07:39:55;5.03;;;2.90;;
71108;SDS011;59614;51.012;-1.648;2022-09-29T07:42:21;5.20;;;2.30;;
71108;SDS011;59614;51.012;-1.648;2022-09-29T07:44:46;3.10;;;2.10;;
71108;SDS011;59614;51.012;-1.648;2022-09-29T07:47:12;6.50;;;2.25;;
71108;SDS011;59614;51.012;-1.648;2022-09-29T07:49:41;3.60;;;2.08;;
71108;SDS011;59614;51.012;-1.648;2022-09-29T07:52:07;4.20;;;2.60;;
71108;SDS011;59614;51.012;-1.648;2022-09-29T07:54:33;4.75;;;2.50;;
71108;SDS011;59614;51.012;-1.648;2022-09-29T07:56:58;4.90;;;2.42;;
71108;SDS011;59614;51.012;-1.648;2022-09-29T07:59:27;7.90;;;2.30;;
71108;SDS011;59614;51.012;-1.648;2022-09-29T08:01:53;3.20;;;2.00;;
71108;SDS011;59614;51.012;-1.648;2022-09-29T08:04:19;5.90;;;2.92;;
71108;SDS011;59614;51.012;-1.648;2022-09-29T08:06:45;9.10;;;5.38;;
71108;SDS011;59614;51.012;-1.648;2022-09-29T08:09:11;16.85;;;11.05;;
71108;SDS011;59614;51.012;-1.648;2022-09-29T08:11:37;23.45;;;14.02;;
71108;SDS011;59614;51.012;-1.648;2022-09-29T08:14:04;25.63;;;15.75;;
71108;SDS011;59614;51.012;-1.648;2022-09-29T08:16:30;45.63;;;28.92;;
71108;SDS011;59614;51.012;-1.648;2022-09-29T08:18:56;35.80;;;23.05;;
71108;SDS011;59614;51.012;-1.648;2022-09-29T08:21:23;9.00;;;5.05;;
71108;SDS011;59614;51.012;-1.648;2022-09-29T08:23:48;8.15;;;5.00;;
71108;SDS011;59614;51.012;-1.648;2022-09-29T08:26:15;7.28;;;3.20;;
71108;SDS011;59614;51.012;-1.648;2022-09-29T08:28:42;6.25;;;3.03;;
71108;SDS011;59614;51.012;-1.648;2022-09-29T08:31:10;3.95;;;2.28;;
71108;SDS011;59614;51.012;-1.648;2022-09-29T08:33:39;4.90;;;2.20;;
71108;SDS011;59614;51.012;-1.648;2022-09-29T08:36:05;3.72;;;2.38;;
71108;SDS011;59614;51.012;-1.648;2022-09-29T08:38:41;6.00;;;3.20;;
71108;SDS011;59614;51.012;-1.648;2022-09-29T08:43:53;18.33;;;8.27;;
71108;SDS011;59614;51.012;-1.648;2022-09-29T08:46:29;89.53;;;43.42;;
71108;SDS011;59614;51.012;-1.648;2022-09-29T08:49:04;212.77;;;99.07;;
71108;SDS011;59614;51.012;-1.648;2022-09-29T08:51:37;29.88;;;15.52;;
71108;SDS011;59614;51.012;-1.648;2022-09-29T08:54:08;8.95;;;4.50;;
71108;SDS011;59614;51.012;-1.648;2022-09-29T08:56:44;9.40;;;2.70;;
71108;SDS011;59614;51.012;-1.648;2022-09-29T08:59:09;2.60;;;1.70;;
71108;SDS011;59614;51.012;-1.648;2022-09-29T09:07:09;3.15;;;1.77;;
71108;SDS011;59614;51.012;-1.648;2022-09-29T09:24:13;1.73;;;1.48;;
71108;SDS011;59614;51.012;-1.648;2022-09-29T09:26:42;4.25;;;1.63;;
71108;SDS011;59614;51.012;-1.648;2022-09-29T09:29:57;3.40;;;2.00;;
71108;SDS011;59614;51.012;-1.648;2022-09-29T09:32:00;9.40;;;3.50;;
71108;SDS011;59614;51.012;-1.648;2022-09-29T09:42:26;2.92;;;1.85;;
71108;SDS011;59614;51.012;-1.648;2022-09-29T09:44:58;2.17;;;1.40;;
71108;SDS011;59614;51.012;-1.648;2022-09-29T09:47:30;2.00;;;1.48;;
71108;SDS011;59614;51.012;-1.648;2022-09-29T09:50:03;2.03;;;1.45;;
71108;SDS011;59614;51.012;-1.648;2022-09-29T09:53:17;12.48;;;4.38;;
71108;SDS011;59614;51.012;-1.648;2022-09-29T09:55:25;24.17;;;9.77;;
71108;SDS011;59614;51.012;-1.648;2022-09-29T10:00:30;3.83;;;2.10;;
71108;SDS011;59614;51.012;-1.648;2022-09-29T10:03:01;2.40;;;1.80;;
71108;SDS011;59614;51.012;-1.648;2022-09-29T10:05:34;1.50;;;1.40;;
71108;SDS011;59614;51.012;-1.648;2022-09-29T10:10:42;2.67;;;1.50;;
71108;SDS011;59614;51.012;-1.648;2022-09-29T10:13:14;1.55;;;1.45;;
71108;SDS011;59614;51.012;-1.648;2022-09-29T10:15:46;2.83;;;1.70;;
71108;SDS011;59614;51.012;-1.648;2022-09-29T10:18:22;1.58;;;1.30;;
71108;SDS011;59614;51.012;-1.648;2022-09-29T10:20:52;1.80;;;1.48;;
71108;SDS011;59614;51.012;-1.648;2022-09-29T10:23:19;2.03;;;1.40;;
71108;SDS011;59614;51.012;-1.648;2022-09-29T10:28:42;1.48;;;1.38;;
71108;SDS011;59614;51.012;-1.648;2022-09-29T10:31:18;1.40;;;1.30;;
71108;SDS011;59614;51.012;-1.648;2022-09-29T10:33:57;1.50;;;1.40;;
71108;SDS011;59614;51.012;-1.648;2022-09-29T10:36:28;16.30;;;6.13;;
71108;SDS011;59614;51.012;-1.648;2022-09-29T10:38:56;43.55;;;15.30;;
71108;SDS011;59614;51.012;-1.648;2022-09-29T10:41:22;7.03;;;3.03;;
71108;SDS011;59614;51.012;-1.648;2022-09-29T10:43:49;2.85;;;1.83;;
71108;SDS011;59614;51.012;-1.648;2022-09-29T10:52:03;2.13;;;1.50;;
71108;SDS011;59614;51.012;-1.648;2022-09-29T10:56:58;22.00;;;8.82;;
71108;SDS011;59614;51.012;-1.648;2022-09-29T10:59:35;17.60;;;6.82;;
71108;SDS011;59614;51.012;-1.648;2022-09-29T11:02:11;22.77;;;6.93;;
71108;SDS011;59614;51.012;-1.648;2022-09-29T11:04:53;36.80;;;12.52;;
71108;SDS011;59614;51.012;-1.648;2022-09-29T11:07:22;22.75;;;9.02;;
71108;SDS011;59614;51.012;-1.648;2022-09-29T11:09:47;4.45;;;2.20;;
71108;SDS011;59614;51.012;-1.648;2022-09-29T11:15:29;2.08;;;1.60;;
71108;SDS011;59614;51.012;-1.648;2022-09-29T11:18:16;4.00;;;2.10;;
71108;SDS011;59614;51.012;-1.648;2022-09-29T11:20:47;2.75;;;1.58;;
71108;SDS011;59614;51.012;-1.648;2022-09-29T11:23:24;4.85;;;1.75;;
71108;SDS011;59614;51.012;-1.648;2022-09-29T11:26:07;7.18;;;2.90;;
71108;SDS011;59614;51.012;-1.648;2022-09-29T11:31:38;3.83;;;1.70;;
71108;SDS011;59614;51.012;-1.648;2022-09-29T11:34:26;1.40;;;1.30;;
71108;SDS011;59614;51.012;-1.648;2022-09-29T11:37:36;1.17;;;1.10;;
71108;SDS011;59614;51.012;-1.648;2022-09-29T11:45:41;1.40;;;1.30;;
71108;SDS011;59614;51.012;-1.648;2022-09-29T11:59:33;1.52;;;1.02;;
71108;SDS011;59614;51.012;-1.648;2022-09-29T12:16:01;10.73;;;1.63;;
71108;SDS011;59614;51.012;-1.648;2022-09-29T12:18:42;13.32;;;1.77;;
71108;SDS011;59614;51.012;-1.648;2022-09-29T12:21:13;10.90;;;2.08;;
71108;SDS011;59614;51.012;-1.648;2022-09-29T12:23:42;7.32;;;1.55;;
71108;SDS011;59614;51.012;-1.648;2022-09-29T12:26:12;2.10;;;1.27;;
71108;SDS011;59614;51.012;-1.648;2022-09-29T12:28:50;2.45;;;1.00;;
71108;SDS011;59614;51.012;-1.648;2022-09-29T12:31:24;1.02;;;0.93;;
71108;SDS011;59614;51.012;-1.648;2022-09-29T12:36:43;2.78;;;1.30;;
71108;SDS011;59614;51.012;-1.648;2022-09-29T12:41:44;2.10;;;1.33;;
71108;SDS011;59614;51.012;-1.648;2022-09-29T12:50:17;2.20;;;1.48;;
71108;SDS011;59614;51.012;-1.648;2022-09-29T12:52:25;2.30;;;1.42;;
71108;SDS011;59614;51.012;-1.648;2022-09-29T12:54:59;2.08;;;1.38;;
71108;SDS011;59614;51.012;-1.648;2022-09-29T12:57:32;4.68;;;1.25;;
71108;SDS011;59614;51.012;-1.648;2022-09-29T13:00:06;2.25;;;1.40;;
71108;SDS011;59614;51.012;-1.648;2022-09-29T13:10:50;2.65;;;1.10;;
71108;SDS011;59614;51.012;-1.648;2022-09-29T13:13:44;2.63;;;1.50;;
71108;SDS011;59614;51.012;-1.648;2022-09-29T13:16:35;3.55;;;2.08;;
71108;SDS011;59614;51.012;-1.648;2022-09-29T13:25:15;3.20;;;1.92;;
71108;SDS011;59614;51.012;-1.648;2022-09-29T13:27:48;4.88;;;2.40;;
71108;SDS011;59614;51.012;-1.648;2022-09-29T13:32:47;5.63;;;2.30;;
71108;SDS011;59614;51.012;-1.648;2022-09-29T13:35:19;4.43;;;2.40;;
71108;SDS011;59614;51.012;-1.648;2022-09-29T13:40:19;4.18;;;2.35;;
71108;SDS011;59614;51.012;-1.648;2022-09-29T13:42:48;5.03;;;2.40;;
71108;SDS011;59614;51.012;-1.648;2022-09-29T13:47:48;3.08;;;1.98;;
71108;SDS011;59614;51.012;-1.648;2022-09-29T13:55:53;4.00;;;2.28;;
71108;SDS011;59614;51.012;-1.648;2022-09-29T13:58:25;3.55;;;2.30;;
71108;SDS011;59614;51.012;-1.648;2022-09-29T14:00:53;3.70;;;2.22;;
71108;SDS011;59614;51.012;-1.648;2022-09-29T14:05:46;3.35;;;1.80;;
71108;SDS011;59614;51.012;-1.648;2022-09-29T14:08:18;3.83;;;2.00;;
71108;SDS011;59614;51.012;-1.648;2022-09-29T14:10:49;2.70;;;1.80;;
71108;SDS011;59614;51.012;-1.648;2022-09-29T14:18:42;2.65;;;1.70;;
71108;SDS011;59614;51.012;-1.648;2022-09-29T14:21:10;2.55;;;1.60;;
71108;SDS011;59614;51.012;-1.648;2022-09-29T14:29:23;5.70;;;2.63;;
71108;SDS011;59614;51.012;-1.648;2022-09-29T14:31:53;2.92;;;2.03;;
71108;SDS011;59614;51.012;-1.648;2022-09-29T14:34:22;4.43;;;2.22;;
71108;SDS011;59614;51.012;-1.648;2022-09-29T14:36:51;3.00;;;2.10;;
71108;SDS011;59614;51.012;-1.648;2022-09-29T14:39:19;4.60;;;2.47;;
71108;SDS011;59614;51.012;-1.648;2022-09-29T14:44:34;3.88;;;2.00;;
71108;SDS011;59614;51.012;-1.648;2022-09-29T14:50:40;5.45;;;2.33;;
71108;SDS011;59614;51.012;-1.648;2022-09-29T15:01:27;5.45;;;2.10;;
71108;SDS011;59614;51.012;-1.648;2022-09-29T15:04:04;4.82;;;2.28;;
71108;SDS011;59614;51.012;-1.648;2022-09-29T15:06:32;3.13;;;1.95;;
71108;SDS011;59614;51.012;-1.648;2022-09-29T15:09:02;2.97;;;1.80;;
71108;SDS011;59614;51.012;-1.648;2022-09-29T15:11:49;6.72;;;3.10;;
71108;SDS011;59614;51.012;-1.648;2022-09-29T15:19:49;3.63;;;2.28;;
71108;SDS011;59614;51.012;-1.648;2022-09-29T15:28:13;4.75;;;2.50;;
71108;SDS011;59614;51.012;-1.648;2022-09-29T15:30:42;4.22;;;2.40;;
71108;SDS011;59614;51.012;-1.648;2022-09-29T15:35:51;3.50;;;2.40;;
71108;SDS011;59614;51.012;-1.648;2022-09-29T15:40:52;5.07;;;2.80;;
71108;SDS011;59614;51.012;-1.648;2022-09-29T15:43:20;4.30;;;2.42;;
71108;SDS011;59614;51.012;-1.648;2022-09-29T15:48:24;5.15;;;2.40;;
71108;SDS011;59614;51.012;-1.648;2022-09-29T15:50:50;4.63;;;2.70;;
71108;SDS011;59614;51.012;-1.648;2022-09-29T15:53:16;4.20;;;2.70;;
71108;SDS011;59614;51.012;-1.648;2022-09-29T15:55:42;4.65;;;2.60;;
71108;SDS011;59614;51.012;-1.648;2022-09-29T15:58:42;5.43;;;2.90;;
71108;SDS011;59614;51.012;-1.648;2022-09-29T16:01:01;6.25;;;3.15;;
71108;SDS011;59614;51.012;-1.648;2022-09-29T16:06:06;9.70;;;3.88;;
71108;SDS011;59614;51.012;-1.648;2022-09-29T16:08:38;5.45;;;3.30;;
71108;SDS011;59614;51.012;-1.648;2022-09-29T16:11:07;8.95;;;4.70;;
71108;SDS011;59614;51.012;-1.648;2022-09-29T16:13:40;8.18;;;3.50;;
71108;SDS011;59614;51.012;-1.648;2022-09-29T16:16:14;6.18;;;3.70;;
71108;SDS011;59614;51.012;-1.648;2022-09-29T16:18:41;8.30;;;3.20;;
71108;SDS011;59614;51.012;-1.648;2022-09-29T16:21:20;5.03;;;3.03;;
71108;SDS011;59614;51.012;-1.648;2022-09-29T16:23:49;4.13;;;2.85;;
71108;SDS011;59614;51.012;-1.648;2022-09-29T16:26:32;6.05;;;3.00;;
71108;SDS011;59614;51.012;-1.648;2022-09-29T16:31:37;5.40;;;3.10;;
71108;SDS011;59614;51.012;-1.648;2022-09-29T16:34:20;6.03;;;3.25;;
71108;SDS011;59614;51.012;-1.648;2022-09-29T16:36:49;9.18;;;3.38;;
71108;SDS011;59614;51.012;-1.648;2022-09-29T16:39:23;31.08;;;11.48;;
71108;SDS011;59614;51.012;-1.648;2022-09-29T16:41:54;30.50;;;12.70;;
71108;SDS011;59614;51.012;-1.648;2022-09-29T16:44:26;31.95;;;13.48;;
71108;SDS011;59614;51.012;-1.648;2022-09-29T16:49:54;19.52;;;8.27;;
71108;SDS011;59614;51.012;-1.648;2022-09-29T16:52:28;17.90;;;6.75;;
71108;SDS011;59614;51.012;-1.648;2022-09-29T16:57:56;6.90;;;3.00;;
71108;SDS011;59614;51.012;-1.648;2022-09-29T17:00:26;6.45;;;3.20;;
71108;SDS011;59614;51.012;-1.648;2022-09-29T17:02:53;7.22;;;3.08;;
71108;SDS011;59614;51.012;-1.648;2022-09-29T17:05:19;4.88;;;2.65;;
71108;SDS011;59614;51.012;-1.648;2022-09-29T17:07:46;4.63;;;2.90;;
71108;SDS011;59614;51.012;-1.648;2022-09-29T17:10:17;4.38;;;2.53;;
71108;SDS011;59614;51.012;-1.648;2022-09-29T17:12:44;6.65;;;2.60;;
71108;SDS011;59614;51.012;-1.648;2022-09-29T17:15:13;4.95;;;2.13;;
71108;SDS011;59614;51.012;-1.648;2022-09-29T17:17:41;4.68;;;2.25;;
71108;SDS011;59614;51.012;-1.648;2022-09-29T17:20:15;6.13;;;2.30;;
71108;SDS011;59614;51.012;-1.648;2022-09-29T17:22:43;4.38;;;2.30;;
71108;SDS011;59614;51.012;-1.648;2022-09-29T17:25:09;5.55;;;2.45;;
71108;SDS011;59614;51.012;-1.648;2022-09-29T17:27:36;3.00;;;2.10;;
71108;SDS011;59614;51.012;-1.648;2022-09-29T17:30:21;3.13;;;1.98;;
71108;SDS011;59614;51.012;-1.648;2022-09-29T17:32:49;3.95;;;2.00;;
71108;SDS011;59614;51.012;-1.648;2022-09-29T17:35:18;3.85;;;2.10;;
71108;SDS011;59614;51.012;-1.648;2022-09-29T17:37:46;3.63;;;2.20;;
71108;SDS011;59614;51.012;-1.648;2022-09-29T17:42:42;3.78;;;1.90;;
71108;SDS011;59614;51.012;-1.648;2022-09-29T17:45:11;6.32;;;2.22;;
71108;SDS011;59614;51.012;-1.648;2022-09-29T17:47:40;4.60;;;2.20;;
71108;SDS011;59614;51.012;-1.648;2022-09-29T17:52:49;3.42;;;1.90;;
71108;SDS011;59614;51.012;-1.648;2022-09-29T17:55:15;5.78;;;2.45;;
71108;SDS011;59614;51.012;-1.648;2022-09-29T17:57:41;8.70;;;3.92;;
71108;SDS011;59614;51.012;-1.648;2022-09-29T18:00:14;6.63;;;3.05;;
71108;SDS011;59614;51.012;-1.648;2022-09-29T18:02:43;9.68;;;4.00;;
71108;SDS011;59614;51.012;-1.648;2022-09-29T18:05:09;8.00;;;3.50;;
71108;SDS011;59614;51.012;-1.648;2022-09-29T18:07:35;5.93;;;3.28;;
71108;SDS011;59614;51.012;-1.648;2022-09-29T18:10:00;4.57;;;2.70;;
71108;SDS011;59614;51.012;-1.648;2022-09-29T18:12:26;4.10;;;2.72;;
71108;SDS011;59614;51.012;-1.648;2022-09-29T18:14:51;5.43;;;2.83;;
71108;SDS011;59614;51.012;-1.648;2022-09-29T18:17:17;7.30;;;3.10;;
71108;SDS011;59614;51.012;-1.648;2022-09-29T18:19:42;8.23;;;2.78;;
71108;SDS011;59614;51.012;-1.648;2022-09-29T18:22:07;4.95;;;2.75;;
71108;SDS011;59614;51.012;-1.648;2022-09-29T18:24:33;4.30;;;2.55;;
71108;SDS011;59614;51.012;-1.648;2022-09-29T18:26:58;4.15;;;2.40;;
71108;SDS011;59614;51.012;-1.648;2022-09-29T18:29:24;4.30;;;2.60;;
71108;SDS011;59614;51.012;-1.648;2022-09-29T18:31:50;14.02;;;5.95;;
71108;SDS011;59614;51.012;-1.648;2022-09-29T18:34:17;25.58;;;9.35;;
71108;SDS011;59614;51.012;-1.648;2022-09-29T18:36:44;238.27;;;81.47;;
71108;SDS011;59614;51.012;-1.648;2022-09-29T18:39:10;272.58;;;97.28;;
71108;SDS011;59614;51.012;-1.648;2022-09-29T18:41:36;325.27;;;115.97;;
71108;SDS011;59614;51.012;-1.648;2022-09-29T18:44:23;281.33;;;101.45;;
71108;SDS011;59614;51.012;-1.648;2022-09-29T18:46:53;224.75;;;88.03;;